createdAt,value
2019-02-08T00:00:33.279Z,3.10
2019-02-08T00:03:00.125Z,3.00
2019-02-08T00:05:28.809Z,2.30
2019-02-08T00:07:55.657Z,2.95
2019-02-08T00:10:22.495Z,1.20
2019-02-08T00:12:49.359Z,1.47
2019-02-08T00:15:18.948Z,1.40
2019-02-08T00:17:45.836Z,1.60
2019-02-08T00:20:21.235Z,2.00
2019-02-08T00:22:48.080Z,4.45
2019-02-08T00:25:16.362Z,2.10
2019-02-08T00:27:43.610Z,7.62
2019-02-08T00:30:25.817Z,6.30
2019-02-08T00:32:53.275Z,4.00
2019-02-08T00:35:20.628Z,4.83
2019-02-08T00:37:47.673Z,3.90
2019-02-08T00:40:19.284Z,1.62
2019-02-08T00:42:46.176Z,0.93
2019-02-08T00:45:17.807Z,1.00
2019-02-08T00:47:44.778Z,1.20
2019-02-08T00:50:14.999Z,1.50
2019-02-08T00:52:41.841Z,2.10
2019-02-08T00:55:09.299Z,3.00
2019-02-08T00:57:36.088Z,1.60
2019-02-08T01:00:11.324Z,1.35
2019-02-08T01:02:39.965Z,2.10
2019-02-08T01:05:09.828Z,1.87
2019-02-08T01:07:37.954Z,2.27
2019-02-08T01:10:11.555Z,3.45
2019-02-08T01:12:38.398Z,1.30
2019-02-08T01:15:08.928Z,1.70
2019-02-08T01:17:36.487Z,4.72
2019-02-08T01:20:06.860Z,2.60
2019-02-08T01:22:33.759Z,2.17
2019-02-08T01:25:00.603Z,1.80
2019-02-08T01:27:27.445Z,2.30
2019-02-08T01:29:54.595Z,6.85
2019-02-08T01:32:21.439Z,2.42
2019-02-08T01:34:48.224Z,5.08
2019-02-08T01:37:15.125Z,2.60
2019-02-08T01:39:41.987Z,5.00
2019-02-08T01:42:08.784Z,1.73
2019-02-08T01:44:35.655Z,1.98
2019-02-08T01:47:02.499Z,2.70
2019-02-08T01:49:29.649Z,1.32
2019-02-08T01:51:56.799Z,1.60
2019-02-08T01:54:23.643Z,3.67
2019-02-08T01:56:50.486Z,2.75
2019-02-08T01:59:17.638Z,3.87
2019-02-08T02:01:44.481Z,2.90
2019-02-08T02:04:11.631Z,1.22
2019-02-08T02:06:38.782Z,1.62
2019-02-08T02:09:06.760Z,4.83
2019-02-08T02:11:33.700Z,2.95
2019-02-08T02:14:00.847Z,2.80
2019-02-08T02:16:27.692Z,3.50
2019-02-08T02:18:54.533Z,2.80
2019-02-08T02:21:21.684Z,2.80
2019-02-08T02:23:55.870Z,5.03
2019-02-08T02:26:17.217Z,2.37
2019-02-08T02:28:44.364Z,4.05
2019-02-08T02:31:11.208Z,2.20
2019-02-08T02:33:38.050Z,2.42
2019-02-08T02:36:04.945Z,4.92
2019-02-08T02:38:31.738Z,3.80
2019-02-08T02:40:58.581Z,2.98
2019-02-08T02:43:25.734Z,2.40
2019-02-08T02:45:52.577Z,2.33
2019-02-08T02:48:19.419Z,3.00
2019-02-08T02:50:46.572Z,2.27
2019-02-08T02:53:13.719Z,3.80
2019-02-08T02:55:40.562Z,2.12
2019-02-08T02:58:07.717Z,7.30
2019-02-08T03:00:41.055Z,2.90
2019-02-08T03:03:08.159Z,2.75
2019-02-08T03:05:35.923Z,4.80
2019-02-08T03:08:04.778Z,5.90
2019-02-08T03:10:31.764Z,10.98
2019-02-08T03:12:58.605Z,2.47
2019-02-08T03:15:25.754Z,3.77
2019-02-08T03:17:53.520Z,1.80
2019-02-08T03:20:22.120Z,3.10
2019-02-08T03:22:49.049Z,2.15
2019-02-08T03:25:18.516Z,3.15
2019-02-08T03:27:45.501Z,4.37
2019-02-08T03:30:16.954Z,4.45
2019-02-08T03:32:44.103Z,2.65
2019-02-08T03:35:14.631Z,3.62
2019-02-08T03:37:41.474Z,2.70
2019-02-08T03:40:12.004Z,10.63
2019-02-08T03:42:39.157Z,2.95
2019-02-08T03:45:08.710Z,3.80
2019-02-08T03:47:35.607Z,2.02
2019-02-08T03:50:05.522Z,3.70
2019-02-08T03:52:32.979Z,5.70
2019-02-08T03:55:00.183Z,5.58
2019-02-08T03:57:27.280Z,5.50
2019-02-08T03:59:54.123Z,2.62
2019-02-08T04:02:20.967Z,4.42
2019-02-08T04:04:48.119Z,3.27
2019-02-08T04:07:14.962Z,3.40
2019-02-08T04:09:42.112Z,4.30
2019-02-08T04:12:09.262Z,4.83
2019-02-08T04:14:36.106Z,2.98
2019-02-08T04:17:03.575Z,3.25
2019-02-08T04:19:30.713Z,6.60
2019-02-08T04:21:57.556Z,5.60
2019-02-08T04:24:29.976Z,3.80
2019-02-08T04:26:53.086Z,4.13
2019-02-08T04:29:19.935Z,9.00
2019-02-08T04:31:46.774Z,5.53
2019-02-08T04:34:13.923Z,5.90
2019-02-08T04:36:40.769Z,4.30
2019-02-08T04:39:07.610Z,3.83
2019-02-08T04:41:34.762Z,5.78
2019-02-08T04:44:01.604Z,8.60
2019-02-08T04:46:28.448Z,4.05
2019-02-08T04:48:55.338Z,6.83
2019-02-08T04:51:22.453Z,8.15
2019-02-08T04:53:49.592Z,7.62
2019-02-08T04:56:17.356Z,6.35
2019-02-08T04:58:44.199Z,6.65
2019-02-08T05:01:11.043Z,4.50
2019-02-08T05:03:38.198Z,9.87
2019-02-08T05:06:05.040Z,4.12
2019-02-08T05:08:31.886Z,9.13
2019-02-08T05:10:58.771Z,3.47
2019-02-08T05:13:25.568Z,3.95
2019-02-08T05:15:52.417Z,4.67
2019-02-08T05:18:19.560Z,4.10
2019-02-08T05:20:46.407Z,5.80
2019-02-08T05:23:13.248Z,5.45
2019-02-08T05:25:41.348Z,7.17
2019-02-08T05:28:08.169Z,4.40
2019-02-08T05:30:35.622Z,6.00
2019-02-08T05:33:04.309Z,22.67
2019-02-08T05:35:31.150Z,16.30
2019-02-08T05:37:57.994Z,10.45
2019-02-08T05:40:25.249Z,7.85
2019-02-08T05:42:52.032Z,10.58
2019-02-08T05:45:21.637Z,7.90
2019-02-08T05:47:48.491Z,9.93
2019-02-08T05:50:20.205Z,10.53
2019-02-08T05:52:47.347Z,12.93
2019-02-08T05:55:20.966Z,10.35
2019-02-08T05:57:48.715Z,11.12
2019-02-08T06:00:38.597Z,10.82
2019-02-08T06:03:06.056Z,12.75
2019-02-08T06:05:33.303Z,13.15
2019-02-08T06:08:00.361Z,17.75
2019-02-08T06:10:27.301Z,10.65
2019-02-08T06:12:54.088Z,7.08
2019-02-08T06:15:22.657Z,12.50
2019-02-08T06:17:49.777Z,7.47
2019-02-08T06:20:19.488Z,12.05
2019-02-08T06:22:46.638Z,6.58
2019-02-08T06:25:15.354Z,8.78
2019-02-08T06:27:43.284Z,9.43
2019-02-08T06:30:13.760Z,8.00
2019-02-08T06:32:40.770Z,12.05
2019-02-08T06:35:08.430Z,6.78
2019-02-08T06:37:35.378Z,8.60
2019-02-08T06:40:05.604Z,12.13
2019-02-08T06:42:33.059Z,9.43
2019-02-08T06:45:00.230Z,6.53
2019-02-08T06:47:27.054Z,15.20
2019-02-08T06:49:53.897Z,7.72
2019-02-08T06:52:21.047Z,8.93
2019-02-08T06:54:48.198Z,8.35
2019-02-08T06:57:16.883Z,16.20
2019-02-08T06:59:45.876Z,8.95
2019-02-08T07:02:17.328Z,6.80
2019-02-08T07:05:03.219Z,11.88
2019-02-08T07:07:31.904Z,10.00
2019-02-08T07:10:03.508Z,7.37
2019-02-08T07:12:32.349Z,12.10
2019-02-08T07:15:04.152Z,10.30
2019-02-08T07:17:38.938Z,11.50
2019-02-08T07:20:28.822Z,7.33
2019-02-08T07:23:09.798Z,12.98
2019-02-08T07:25:54.768Z,9.80
2019-02-08T07:28:32.360Z,8.80
2019-02-08T07:31:13.339Z,10.35
2019-02-08T07:33:42.330Z,29.25
2019-02-08T07:36:14.394Z,24.90
2019-02-08T07:38:46.460Z,19.55
2019-02-08T07:41:15.761Z,28.42
2019-02-08T07:43:59.810Z,18.15
2019-02-08T07:46:35.566Z,17.07
2019-02-08T07:49:11.005Z,23.38
2019-02-08T07:51:39.999Z,26.97
2019-02-08T07:54:18.048Z,26.27
2019-02-08T07:56:49.662Z,21.87
2019-02-08T07:59:18.656Z,20.75
2019-02-08T08:02:02.700Z,20.80
2019-02-08T08:04:44.904Z,18.70
2019-02-08T08:07:13.898Z,20.02
2019-02-08T08:09:43.466Z,22.37
2019-02-08T08:12:18.381Z,22.25
2019-02-08T08:14:50.711Z,22.25
2019-02-08T08:17:25.878Z,23.73
2019-02-08T08:20:11.124Z,24.80
2019-02-08T08:22:57.321Z,12.37
2019-02-08T08:25:35.277Z,17.92
2019-02-08T08:28:06.673Z,11.83
2019-02-08T08:30:48.264Z,20.10
2019-02-08T08:33:33.846Z,12.35
2019-02-08T08:36:19.428Z,20.97
2019-02-08T08:38:53.030Z,19.32
2019-02-08T08:41:32.328Z,19.12
2019-02-08T08:44:21.124Z,18.67
2019-02-08T08:47:03.327Z,16.93
2019-02-08T08:49:40.001Z,18.85
2019-02-08T08:52:13.603Z,18.55
2019-02-08T08:55:16.388Z,16.30
2019-02-08T08:58:05.043Z,18.87
2019-02-08T09:00:53.702Z,16.35
2019-02-08T09:03:50.341Z,19.12
2019-02-08T09:06:33.159Z,19.50
2019-02-08T09:09:06.453Z,13.47
2019-02-08T09:12:03.103Z,19.73
2019-02-08T09:14:39.768Z,24.67
2019-02-08T09:17:25.697Z,20.97
2019-02-08T09:20:05.404Z,13.98
2019-02-08T09:23:09.726Z,14.50
2019-02-08T09:25:49.932Z,10.40
2019-02-08T09:28:19.436Z,10.32
2019-02-08T09:30:55.754Z,13.17
2019-02-08T09:33:47.788Z,12.37
2019-02-08T09:36:16.781Z,3.77
2019-02-08T09:38:51.919Z,10.75
2019-02-08T09:41:23.552Z,14.95
2019-02-08T09:43:55.436Z,6.40
2019-02-08T09:46:24.268Z,9.13
2019-02-08T09:49:09.746Z,11.90
2019-02-08T09:51:50.992Z,10.38
2019-02-08T09:54:53.776Z,8.58
2019-02-08T09:57:48.266Z,6.08
2019-02-08T10:00:34.155Z,6.60
2019-02-08T10:03:27.726Z,4.47
2019-02-08T10:06:13.308Z,7.72
2019-02-08T10:08:58.584Z,11.85
2019-02-08T10:12:02.906Z,9.73
2019-02-08T10:14:39.272Z,12.60
2019-02-08T10:17:25.166Z,11.93
2019-02-08T10:19:58.205Z,8.30
2019-02-08T10:23:04.010Z,8.03
2019-02-08T10:25:37.302Z,14.65
2019-02-08T10:28:13.983Z,4.97
2019-02-08T10:30:58.432Z,5.90
2019-02-08T10:33:27.630Z,9.00
2019-02-08T10:35:59.696Z,13.72
2019-02-08T10:38:34.833Z,6.95
2019-02-08T10:41:09.671Z,9.65
2019-02-08T10:43:55.557Z,11.20
2019-02-08T10:46:41.447Z,6.42
2019-02-08T10:49:16.275Z,7.47
2019-02-08T10:51:51.420Z,16.15
2019-02-08T10:54:26.554Z,609.52
2019-02-08T10:57:10.597Z,573.50
2019-02-08T10:59:51.878Z,1119.55
2019-02-08T11:02:23.958Z,1125.03
2019-02-08T11:05:09.842Z,1132.43
2019-02-08T11:07:44.924Z,757.08
2019-02-08T11:10:19.540Z,679.85
2019-02-08T11:12:48.332Z,923.23
2019-02-08T11:15:34.016Z,505.65
2019-02-08T11:18:15.046Z,479.38
2019-02-08T11:20:42.198Z,2.83
2019-02-08T11:23:09.041Z,13.03
2019-02-08T13:55:06.841Z,3.90
2019-02-08T15:15:53.899Z,4.80
2019-02-08T15:20:47.910Z,2.90
2019-02-08T15:23:15.042Z,6.83
2019-02-08T15:25:41.800Z,7.00
2019-02-08T15:28:09.046Z,2.73
2019-02-08T15:30:37.145Z,2.27
2019-02-08T15:33:04.566Z,2.63
2019-02-08T15:35:31.718Z,3.83
2019-02-08T15:37:58.867Z,3.13
2019-02-08T15:40:32.471Z,3.53
2019-02-08T15:42:59.565Z,7.67
2019-02-08T15:45:26.770Z,4.00
2019-02-08T15:47:53.923Z,4.00
2019-02-08T15:50:21.071Z,3.00
2019-02-08T15:52:48.222Z,7.17
2019-02-08T15:55:30.425Z,8.70
2019-02-08T15:57:57.577Z,7.80
2019-02-08T16:00:27.544Z,4.77
2019-02-08T16:02:54.335Z,3.20
2019-02-08T16:05:22.417Z,5.23
2019-02-08T16:07:49.557Z,4.15
2019-02-08T16:10:16.960Z,3.00
2019-02-08T16:12:43.861Z,4.30
2019-02-08T16:15:17.096Z,6.92
2019-02-08T16:17:44.244Z,7.22
2019-02-08T16:20:14.219Z,5.58
2019-02-08T16:22:41.061Z,16.60
2019-02-08T16:25:11.220Z,6.05
2019-02-08T16:27:39.959Z,10.68
2019-02-08T16:30:08.964Z,4.28
2019-02-08T16:32:35.808Z,3.52
2019-02-08T16:35:05.089Z,4.08
2019-02-08T16:37:31.952Z,7.17
2019-02-08T16:39:58.795Z,12.70
2019-02-08T16:42:25.945Z,5.70
2019-02-08T16:44:53.096Z,4.95
2019-02-08T16:47:20.246Z,7.10
2019-02-08T16:49:47.397Z,3.30
2019-02-08T16:52:14.550Z,3.10
2019-02-08T16:54:41.698Z,3.50
2019-02-08T16:57:08.848Z,2.35
2019-02-08T16:59:36.000Z,2.27
2019-02-08T18:44:54.870Z,8.90
2019-02-08T19:06:57.073Z,9.00
2019-02-08T20:22:57.201Z,19.00
2019-02-08T20:25:27.121Z,16.65
2019-02-08T20:27:53.960Z,17.85
2019-02-08T20:30:23.876Z,21.20
2019-02-08T20:32:51.025Z,17.70
2019-02-08T20:35:19.712Z,13.73
2019-02-08T20:37:47.477Z,22.05
2019-02-08T20:40:20.716Z,17.70
2019-02-08T20:42:47.941Z,28.00
2019-02-08T20:47:46.217Z,10.50
2019-02-08T20:50:14.903Z,17.20
2019-02-08T20:52:42.054Z,12.80
2019-02-08T20:55:10.004Z,14.90
2019-02-08T20:57:36.970Z,10.27
2019-02-08T21:00:23.781Z,15.10
2019-02-08T21:02:52.177Z,10.10
2019-02-08T21:05:19.516Z,16.00
2019-02-08T21:07:46.461Z,13.30
2019-02-08T21:10:13.304Z,18.35
2019-02-08T21:12:40.148Z,10.08
2019-02-08T21:15:09.448Z,17.37
2019-02-08T21:17:36.292Z,9.80
2019-02-08T21:20:10.200Z,7.33
2019-02-08T21:22:37.354Z,9.93
2019-02-08T21:25:07.881Z,7.95
2019-02-08T21:27:34.724Z,7.80
2019-02-08T21:30:01.800Z,6.40
2019-02-08T21:32:29.027Z,8.53
2019-02-08T21:34:55.868Z,7.90
2019-02-08T21:37:23.019Z,5.58
2019-02-08T21:39:49.862Z,6.85
2019-02-08T21:42:16.708Z,7.75
2019-02-08T21:44:43.549Z,5.42
2019-02-08T21:47:10.392Z,7.47
2019-02-08T21:49:37.237Z,6.72
2019-02-08T21:52:04.386Z,7.58
2019-02-08T21:54:32.068Z,7.37
2019-02-08T21:56:59.301Z,8.05
2019-02-08T21:59:26.451Z,10.60
2019-02-08T22:01:53.413Z,9.75
2019-02-08T22:04:20.445Z,8.83
2019-02-08T22:06:47.597Z,10.20
2019-02-08T22:09:14.749Z,11.60
2019-02-08T22:11:41.591Z,7.97
2019-02-08T22:14:08.484Z,9.60
2019-02-08T22:16:35.276Z,11.48
2019-02-08T22:19:02.120Z,9.78
2019-02-08T22:21:28.963Z,10.50
2019-02-08T22:23:55.807Z,9.40
2019-02-08T22:26:22.650Z,10.40
2019-02-08T22:28:49.801Z,10.63
2019-02-08T22:31:16.645Z,8.48
2019-02-08T22:33:43.486Z,12.07
2019-02-08T22:36:10.618Z,9.43
2019-02-08T22:38:37.481Z,8.15
2019-02-08T22:41:04.630Z,7.75
2019-02-08T22:43:31.781Z,12.30
2019-02-08T22:45:58.626Z,9.60
2019-02-08T22:48:25.352Z,10.40
2019-02-08T22:50:52.322Z,7.47
2019-02-08T22:53:19.154Z,10.70
2019-02-08T22:55:45.999Z,9.45
2019-02-08T22:58:12.944Z,6.30
2019-02-08T23:00:52.328Z,10.15
2019-02-08T23:03:19.431Z,6.53
2019-02-08T23:05:46.583Z,16.10
2019-02-08T23:08:13.425Z,10.93
2019-02-08T23:10:40.577Z,7.72
2019-02-08T23:13:08.646Z,8.85
2019-02-08T23:15:35.800Z,12.58
2019-02-08T23:18:04.790Z,8.30
2019-02-08T23:20:31.633Z,5.17
2019-02-08T23:22:58.783Z,4.25
2019-02-08T23:25:25.934Z,2.72
2019-02-08T23:27:52.778Z,4.70
2019-02-08T23:30:21.416Z,6.80
2019-02-08T23:32:48.307Z,12.95
2019-02-08T23:35:15.458Z,5.45
2019-02-08T23:37:42.609Z,5.15
2019-02-08T23:40:12.217Z,10.97
2019-02-08T23:42:39.061Z,6.80
2019-02-08T23:45:09.282Z,7.60
2019-02-08T23:47:36.434Z,8.53
2019-02-08T23:50:06.962Z,3.85
2019-02-08T23:52:33.806Z,10.70
2019-02-08T23:55:00.956Z,8.53
2019-02-08T23:57:27.800Z,8.98
2019-02-08T23:59:54.951Z,9.63
